createdAt,value
2018-09-28T00:01:53.061Z,19.27
2018-09-28T00:04:22.492Z,14.90
2018-09-28T00:06:51.736Z,18.03
2018-09-28T00:09:21.673Z,17.93
2018-09-28T00:12:00.319Z,15.37
2018-09-28T00:14:30.720Z,17.83
2018-09-28T00:17:00.642Z,17.20
2018-09-28T00:19:30.551Z,11.83
2018-09-28T00:22:00.140Z,11.60
2018-09-28T00:24:29.679Z,10.23
2018-09-28T00:26:59.311Z,13.43
2018-09-28T00:29:29.069Z,13.83
2018-09-28T00:31:59.290Z,13.50
2018-09-28T00:34:29.120Z,14.87
2018-09-28T00:36:58.580Z,26.00
2018-09-28T00:39:30.326Z,12.93
2018-09-28T00:42:00.199Z,11.53
2018-09-28T00:44:29.700Z,11.10
2018-09-28T00:47:06.100Z,12.40
2018-09-28T00:49:46.795Z,13.97
2018-09-28T00:52:19.527Z,24.60
2018-09-28T00:54:54.960Z,14.63
2018-09-28T00:57:24.129Z,12.90
2018-09-28T00:59:53.595Z,11.40
2018-09-28T01:02:22.921Z,12.63
2018-09-28T01:04:53.115Z,11.73
2018-09-28T01:07:22.892Z,11.47
2018-09-28T01:09:52.114Z,11.97
2018-09-28T01:12:22.325Z,11.93
2018-09-28T01:14:54.604Z,10.10
2018-09-28T01:17:25.743Z,13.70
2018-09-28T01:19:55.981Z,12.20
2018-09-28T01:22:25.344Z,17.00
2018-09-28T01:24:56.285Z,12.10
2018-09-28T01:27:26.058Z,13.67
2018-09-28T01:29:55.363Z,14.17
2018-09-28T01:32:24.564Z,15.03
2018-09-28T01:34:53.941Z,14.77
2018-09-28T01:37:23.235Z,15.50
2018-09-28T01:40:07.108Z,11.87
2018-09-28T01:42:37.457Z,13.33
2018-09-28T01:45:07.017Z,15.20
2018-09-28T01:47:36.388Z,12.67
2018-09-28T01:50:10.680Z,32.60
2018-09-28T01:52:48.147Z,13.83
2018-09-28T01:55:21.666Z,12.70
2018-09-28T01:57:50.802Z,13.37
2018-09-28T02:00:21.328Z,13.90
2018-09-28T02:02:50.737Z,15.67
2018-09-28T02:05:19.939Z,16.37
2018-09-28T02:07:49.615Z,15.70
2018-09-28T02:10:19.515Z,13.73
2018-09-28T02:12:48.891Z,18.80
2018-09-28T02:15:25.782Z,11.70
2018-09-28T02:17:55.104Z,12.90
2018-09-28T02:20:26.941Z,10.03
2018-09-28T02:22:56.230Z,11.40
2018-09-28T02:25:25.465Z,10.77
2018-09-28T02:27:55.172Z,10.30
2018-09-28T02:30:27.418Z,9.80
2018-09-28T02:32:57.564Z,9.83
2018-09-28T02:35:28.235Z,10.30
2018-09-28T02:37:58.094Z,9.50
2018-09-28T02:40:28.024Z,8.77
2018-09-28T02:42:57.193Z,10.80
2018-09-28T02:45:26.468Z,10.73
2018-09-28T02:47:56.456Z,12.73
2018-09-28T02:50:26.217Z,10.20
2018-09-28T02:52:59.375Z,10.47
2018-09-28T02:55:28.641Z,10.90
2018-09-28T02:57:59.075Z,9.60
2018-09-28T03:00:31.081Z,9.73
2018-09-28T03:03:01.297Z,9.47
2018-09-28T03:05:38.747Z,9.60
2018-09-28T03:08:09.485Z,12.50
2018-09-28T03:11:02.301Z,9.67
2018-09-28T03:13:34.152Z,10.10
2018-09-28T03:16:05.149Z,10.20
2018-09-28T03:18:35.152Z,11.30
2018-09-28T03:21:04.551Z,11.30
2018-09-28T03:23:33.881Z,8.57
2018-09-28T03:26:03.174Z,9.20
2018-09-28T03:28:32.247Z,9.87
2018-09-28T03:31:01.520Z,9.30
2018-09-28T03:33:31.762Z,8.20
2018-09-28T03:36:01.070Z,9.23
2018-09-28T03:38:30.166Z,11.50
2018-09-28T03:40:59.747Z,13.37
2018-09-28T03:43:28.969Z,12.43
2018-09-28T03:45:58.245Z,11.60
2018-09-28T03:48:37.333Z,12.07
2018-09-28T03:51:15.091Z,13.80
2018-09-28T03:53:50.167Z,10.77
2018-09-28T03:56:19.742Z,10.23
2018-09-28T03:58:49.197Z,9.03
2018-09-28T04:01:18.413Z,9.00
2018-09-28T04:03:48.030Z,9.50
2018-09-28T04:06:17.195Z,10.07
2018-09-28T04:08:46.374Z,8.23
2018-09-28T04:11:15.569Z,10.10
2018-09-28T04:13:44.966Z,9.33
2018-09-28T04:16:14.320Z,10.80
2018-09-28T04:18:43.421Z,10.00
2018-09-28T04:21:13.779Z,12.10
2018-09-28T04:23:42.901Z,10.37
2018-09-28T04:26:12.164Z,10.40
2018-09-28T04:28:41.313Z,9.30
2018-09-28T04:31:18.418Z,12.03
2018-09-28T04:33:49.202Z,9.60
2018-09-28T04:36:23.032Z,9.30
2018-09-28T04:38:52.539Z,10.50
2018-09-28T04:41:22.316Z,11.00
2018-09-28T04:43:51.531Z,11.00
2018-09-28T04:46:22.073Z,10.47
2018-09-28T04:48:52.705Z,9.43
2018-09-28T04:51:23.037Z,10.30
2018-09-28T04:54:03.461Z,12.33
2018-09-28T04:56:46.098Z,14.03
2018-09-28T04:59:15.626Z,13.40
2018-09-28T05:01:45.760Z,13.60
2018-09-28T05:04:15.136Z,15.70
2018-09-28T05:06:45.206Z,15.27
2018-09-28T05:09:15.233Z,14.93
2018-09-28T05:11:44.422Z,17.27
2018-09-28T05:14:16.314Z,21.10
2018-09-28T05:16:45.637Z,13.83
2018-09-28T05:19:15.257Z,13.50
2018-09-28T05:21:44.743Z,15.30
2018-09-28T05:24:15.034Z,12.50
2018-09-28T05:26:44.304Z,11.40
2018-09-28T05:29:14.857Z,10.73
2018-09-28T05:31:47.173Z,10.57
2018-09-28T05:34:16.831Z,11.13
2018-09-28T05:36:46.061Z,12.13
2018-09-28T05:39:18.275Z,11.67
2018-09-28T05:41:48.489Z,14.00
2018-09-28T05:44:18.466Z,11.13
2018-09-28T05:46:47.876Z,10.60
2018-09-28T05:49:18.132Z,14.00
2018-09-28T05:51:48.253Z,11.53
2018-09-28T05:54:17.974Z,10.93
2018-09-28T05:56:47.321Z,12.10
2018-09-28T05:59:21.980Z,10.33
2018-09-28T06:01:57.936Z,12.47
2018-09-28T06:04:32.645Z,10.80
2018-09-28T06:07:03.083Z,10.30
2018-09-28T06:09:38.607Z,11.20
2018-09-28T06:12:09.742Z,10.80
2018-09-28T06:14:39.767Z,13.37
2018-09-28T06:17:09.955Z,10.93
2018-09-28T06:19:39.433Z,12.90
2018-09-28T06:22:10.477Z,15.00
2018-09-28T06:24:40.168Z,13.53
2018-09-28T06:27:12.328Z,14.20
2018-09-28T06:29:53.531Z,11.97
2018-09-28T06:32:28.513Z,14.17
2018-09-28T06:38:30.334Z,12.40
2018-09-28T06:41:02.165Z,15.60
2018-09-28T06:43:38.678Z,18.13
2018-09-28T06:46:09.498Z,16.80
2018-09-28T06:48:39.120Z,18.43
2018-09-28T06:51:18.981Z,18.17
2018-09-28T06:53:48.646Z,18.07
2018-09-28T06:56:18.342Z,23.60
2018-09-28T06:58:47.669Z,20.33
2018-09-28T07:01:20.670Z,30.30
2018-09-28T07:03:50.321Z,30.27
2018-09-28T07:06:21.572Z,31.40
2018-09-28T07:08:52.546Z,32.63
2018-09-28T07:11:29.007Z,33.07
2018-09-28T07:14:05.507Z,31.90
2018-09-28T07:17:02.752Z,30.63
2018-09-28T07:19:41.656Z,30.13
2018-09-28T07:22:16.633Z,31.80
2018-09-28T07:24:48.333Z,34.13
2018-09-28T07:27:19.895Z,32.63
2018-09-28T07:29:49.360Z,30.07
2018-09-28T07:32:20.577Z,32.87
2018-09-28T07:34:50.244Z,31.57
2018-09-28T07:37:20.857Z,33.07
2018-09-28T07:39:50.394Z,29.20
2018-09-28T07:42:20.249Z,31.83
2018-09-28T07:44:53.232Z,31.03
2018-09-28T07:47:23.656Z,28.73
2018-09-28T07:49:57.671Z,29.87
2018-09-28T07:52:30.720Z,27.60
2018-09-28T07:55:00.421Z,29.63
2018-09-28T07:57:30.885Z,48.67
2018-09-28T08:00:01.752Z,31.67
2018-09-28T08:02:31.109Z,31.33
2018-09-28T08:05:00.424Z,36.90
2018-09-28T08:07:31.743Z,38.00
2018-09-28T08:10:02.506Z,37.27
2018-09-28T08:12:32.326Z,37.73
2018-09-28T08:15:01.806Z,38.30
2018-09-28T08:17:32.101Z,42.07
2018-09-28T08:20:02.462Z,45.87
2018-09-28T08:22:36.273Z,45.60
2018-09-28T08:25:06.612Z,41.50
2018-09-28T08:27:36.877Z,45.80
2018-09-28T08:30:07.259Z,44.77
2018-09-28T08:32:37.315Z,47.87
2018-09-28T08:35:07.289Z,50.40
2018-09-28T08:37:36.822Z,61.33
2018-09-28T08:40:06.306Z,58.53
2018-09-28T08:42:43.066Z,63.67
2018-09-28T08:45:22.928Z,61.33
2018-09-28T08:47:56.584Z,63.80
2018-09-28T08:50:28.241Z,71.57
2018-09-28T08:53:00.638Z,73.00
2018-09-28T08:55:31.290Z,73.23
2018-09-28T08:58:02.806Z,70.70
2018-09-28T09:00:34.290Z,71.77
2018-09-28T09:03:04.121Z,65.07
2018-09-28T09:05:34.989Z,67.77
2018-09-28T09:08:08.735Z,57.50
2018-09-28T09:10:38.385Z,64.20
2018-09-28T09:13:08.365Z,57.70
2018-09-28T09:15:39.172Z,57.47
2018-09-28T09:18:10.489Z,58.17
2018-09-28T09:20:43.811Z,59.40
2018-09-28T09:23:22.618Z,60.47
2018-09-28T09:25:53.144Z,59.80
2018-09-28T09:28:25.469Z,63.10
2018-09-28T09:30:54.730Z,67.90
2018-09-28T09:33:24.341Z,78.07
2018-09-28T09:35:53.830Z,62.47
2018-09-28T09:38:24.213Z,68.43
2018-09-28T09:40:56.402Z,63.73
2018-09-28T09:43:26.429Z,63.63
2018-09-28T09:45:56.349Z,61.10
2018-09-28T09:48:26.008Z,62.70
2018-09-28T09:50:56.697Z,58.03
2018-09-28T09:53:26.751Z,59.70
2018-09-28T09:55:56.422Z,70.23
2018-09-28T09:58:32.453Z,64.70
2018-09-28T10:01:06.079Z,61.17
2018-09-28T10:03:42.130Z,67.07
2018-09-28T10:06:13.351Z,62.83
2018-09-28T10:08:44.430Z,59.53
2018-09-28T10:11:16.255Z,58.47
2018-09-28T10:13:45.855Z,59.10
2018-09-28T10:16:21.778Z,55.30
2018-09-28T10:18:53.795Z,51.67
2018-09-28T10:21:25.499Z,54.20
2018-09-28T10:23:59.215Z,55.53
2018-09-28T10:26:31.435Z,57.27
2018-09-28T10:29:07.058Z,52.83
2018-09-28T10:31:38.802Z,52.70
2018-09-28T10:34:09.661Z,50.10
2018-09-28T10:36:42.254Z,50.73
2018-09-28T10:39:14.709Z,47.27
2018-09-28T10:41:46.389Z,43.83
2018-09-28T10:44:18.688Z,48.47
2018-09-28T10:46:52.404Z,41.53
2018-09-28T10:49:24.739Z,44.93
2018-09-28T10:52:06.985Z,42.17
2018-09-28T10:54:48.550Z,38.80
2018-09-28T10:57:23.858Z,34.30
2018-09-28T10:59:58.439Z,39.27
2018-09-28T11:02:40.800Z,32.03
2018-09-28T11:05:11.395Z,31.80
2018-09-28T11:07:43.190Z,26.87
2018-09-28T11:10:14.306Z,27.00
2018-09-28T11:12:48.773Z,27.17
2018-09-28T11:15:25.291Z,26.93
2018-09-28T11:18:03.476Z,24.07
2018-09-28T11:20:48.170Z,26.30
2018-09-28T11:23:18.545Z,19.67
2018-09-28T11:25:49.381Z,18.33
2018-09-28T11:28:22.297Z,24.10
2018-09-28T11:30:55.235Z,19.57
2018-09-28T11:33:25.226Z,18.87
2018-09-28T11:35:54.932Z,19.40
2018-09-28T11:38:28.670Z,17.40
2018-09-28T11:41:00.985Z,21.20
2018-09-28T11:43:37.360Z,16.73
2018-09-28T11:46:09.286Z,18.27
2018-09-28T11:48:39.740Z,22.63
2018-09-28T11:51:10.304Z,14.03
2018-09-28T11:53:44.158Z,16.43
2018-09-28T11:56:14.802Z,14.50
2018-09-28T11:58:44.396Z,12.03
2018-09-28T12:01:16.782Z,12.67
2018-09-28T12:03:48.561Z,9.63
2018-09-28T12:06:19.270Z,11.23
2018-09-28T12:09:09.227Z,11.20
2018-09-28T12:11:45.087Z,9.70
2018-09-28T12:14:15.516Z,9.50
2018-09-28T12:16:45.384Z,7.40
2018-09-28T12:19:15.883Z,11.70
2018-09-28T12:21:46.873Z,17.13
2018-09-28T12:24:20.005Z,6.50
2018-09-28T12:26:51.172Z,6.50
2018-09-28T12:29:20.676Z,6.53
2018-09-28T12:31:55.157Z,7.90
2018-09-28T12:34:25.651Z,8.43
2018-09-28T12:36:55.859Z,9.37
2018-09-28T12:39:27.366Z,6.60
2018-09-28T12:41:57.435Z,9.30
2018-09-28T12:44:27.251Z,5.70
2018-09-28T12:47:03.355Z,7.90
2018-09-28T12:49:35.225Z,7.07
2018-09-28T12:52:06.552Z,8.13
2018-09-28T12:54:37.097Z,5.63
2018-09-28T12:57:08.280Z,9.97
2018-09-28T12:59:40.817Z,6.67
2018-09-28T13:02:10.869Z,5.80
2018-09-28T13:04:45.530Z,5.00
2018-09-28T13:07:15.963Z,5.20
2018-09-28T13:09:57.720Z,5.30
2018-09-28T13:12:28.260Z,6.40
2018-09-28T13:14:59.065Z,5.30
2018-09-28T13:17:29.382Z,7.30
2018-09-28T13:20:01.092Z,6.80
2018-09-28T13:22:33.972Z,6.80
2018-09-28T13:25:13.294Z,6.03
2018-09-28T13:27:44.137Z,5.23
2018-09-28T13:30:15.999Z,7.13
2018-09-28T13:32:46.130Z,7.60
2018-09-28T13:35:16.709Z,6.60
2018-09-28T13:37:47.834Z,8.87
2018-09-28T13:40:18.439Z,5.73
2018-09-28T13:42:49.855Z,6.63
2018-09-28T13:45:25.438Z,8.10
2018-09-28T13:47:56.990Z,5.60
2018-09-28T13:50:30.012Z,9.50
2018-09-28T13:53:02.747Z,9.23
2018-09-28T13:55:32.846Z,9.03
2018-09-28T13:58:02.258Z,6.87
2018-09-28T14:00:35.082Z,8.90
2018-09-28T14:03:06.027Z,7.73
2018-09-28T14:05:38.347Z,8.47
2018-09-28T14:08:08.998Z,6.63
2018-09-28T14:10:38.743Z,6.07
2018-09-28T14:13:09.098Z,6.93
2018-09-28T14:15:40.949Z,7.77
2018-09-28T14:18:12.448Z,6.67
2018-09-28T14:20:49.269Z,6.97
2018-09-28T14:23:25.258Z,8.70
2018-09-28T14:25:55.162Z,8.27
2018-09-28T14:28:25.802Z,6.20
2018-09-28T14:30:55.362Z,6.67
2018-09-28T14:33:24.988Z,6.33
2018-09-28T14:35:56.280Z,8.33
2018-09-28T14:38:25.852Z,8.97
2018-09-28T14:40:56.776Z,6.53
2018-09-28T14:43:26.848Z,10.03
2018-09-28T14:45:57.276Z,13.23
2018-09-28T14:48:27.673Z,7.23
2018-09-28T14:50:59.089Z,9.90
2018-09-28T14:53:28.809Z,5.60
2018-09-28T14:55:58.543Z,6.80
2018-09-28T14:58:29.242Z,39.57
2018-09-28T15:01:07.043Z,9.40
2018-09-28T15:03:43.943Z,10.80
2018-09-28T15:06:14.609Z,6.97
2018-09-28T15:08:45.305Z,7.60
2018-09-28T15:11:28.884Z,15.13
2018-09-28T15:13:58.699Z,8.30
2018-09-28T15:16:28.404Z,11.40
2018-09-28T15:18:58.612Z,5.77
2018-09-28T15:21:28.110Z,6.07
2018-09-28T15:24:10.542Z,6.37
2018-09-28T15:26:49.213Z,6.90
2018-09-28T15:29:29.306Z,10.90
2018-09-28T15:32:08.963Z,9.80
2018-09-28T15:34:39.739Z,10.70
2018-09-28T15:37:09.258Z,7.80
2018-09-28T15:39:42.273Z,6.40
2018-09-28T15:42:18.889Z,9.03
2018-09-28T15:44:49.880Z,6.07
2018-09-28T15:47:19.831Z,18.40
2018-09-28T15:50:10.846Z,6.60
2018-09-28T15:52:45.710Z,8.97
2018-09-28T15:55:18.837Z,16.57
2018-09-28T15:57:55.874Z,59.37
2018-09-28T16:00:26.861Z,24.77
2018-09-28T16:02:59.872Z,36.73
2018-09-28T16:05:34.577Z,32.90
2018-09-28T16:08:08.949Z,12.10
2018-09-28T16:10:45.137Z,11.13
2018-09-28T16:13:19.934Z,28.30
2018-09-28T16:16:04.314Z,12.83
2018-09-28T16:18:40.292Z,13.00
2018-09-28T16:21:15.668Z,32.63
2018-09-28T16:23:46.276Z,16.87
2018-09-28T16:26:17.288Z,9.00
2018-09-28T16:31:57.145Z,5.93
2018-09-28T16:34:27.795Z,25.37
2018-09-28T16:37:03.902Z,10.70
2018-09-28T16:39:51.251Z,12.20
2018-09-28T16:42:37.365Z,12.87
2018-09-28T16:45:28.886Z,17.60
2018-09-28T16:48:14.845Z,19.50
2018-09-28T16:50:51.280Z,13.87
2018-09-28T16:53:33.421Z,20.27
2018-09-28T16:56:08.005Z,15.60
2018-09-28T16:58:44.195Z,7.17
2018-09-28T17:04:06.978Z,19.33
2018-09-28T17:06:45.576Z,12.17
2018-09-28T17:09:19.228Z,9.97
2018-09-28T17:11:51.848Z,9.87
2018-09-28T17:14:46.413Z,10.40
2018-09-28T17:17:22.819Z,10.90
2018-09-28T17:19:57.914Z,27.60
2018-09-28T17:22:42.365Z,31.53
2018-09-28T17:25:28.514Z,7.53
2018-09-28T17:28:05.828Z,9.53
2018-09-28T17:30:46.506Z,8.10
2018-09-28T17:33:22.178Z,7.00
2018-09-28T17:35:53.764Z,6.83
2018-09-28T17:38:25.221Z,30.67
2018-09-28T17:40:57.425Z,5.50
2018-09-28T17:43:29.988Z,4.50
2018-09-28T17:46:03.449Z,8.57
2018-09-28T17:48:35.773Z,6.37
2018-09-28T17:51:24.206Z,9.40
2018-09-28T17:54:07.001Z,7.40
2018-09-28T17:56:46.786Z,12.50
2018-09-28T17:59:31.314Z,9.23
2018-09-28T18:02:12.524Z,8.97
2018-09-28T18:04:44.056Z,8.63
2018-09-28T18:07:15.276Z,19.07
2018-09-28T18:09:59.929Z,26.47
2018-09-28T18:12:35.183Z,14.53
2018-09-28T18:15:05.306Z,16.20
2018-09-28T18:17:41.393Z,12.20
2018-09-28T18:20:11.973Z,12.07
2018-09-28T18:22:48.081Z,16.07
2018-09-28T18:25:18.432Z,10.00
2018-09-28T18:27:54.747Z,29.13
2018-09-28T18:30:26.317Z,30.60
2018-09-28T18:32:55.960Z,24.40
2018-09-28T18:35:29.955Z,11.70
2018-09-28T18:41:06.641Z,10.57
2018-09-28T18:43:48.553Z,12.73
2018-09-28T18:46:39.815Z,15.50
2018-09-28T18:52:27.790Z,15.30
2018-09-28T18:55:00.522Z,15.53
2018-09-28T18:57:37.718Z,21.17
2018-09-28T19:00:13.344Z,34.93
2018-09-28T19:02:45.826Z,34.73
2018-09-28T19:05:15.817Z,14.50
2018-09-28T19:10:45.219Z,41.40
2018-09-28T19:13:19.301Z,12.50
2018-09-28T19:15:52.551Z,15.40
2018-09-28T19:18:31.398Z,91.97
2018-09-28T19:21:17.795Z,25.67
2018-09-28T19:23:49.564Z,42.80
2018-09-28T19:26:30.698Z,33.43
2018-09-28T19:29:13.462Z,20.00
2018-09-28T19:31:51.067Z,79.73
2018-09-28T19:34:32.410Z,26.70
2018-09-28T19:37:17.009Z,68.90
2018-09-28T19:39:49.464Z,71.73
2018-09-28T19:42:21.925Z,27.13
2018-09-28T19:44:56.329Z,57.67
2018-09-28T19:47:29.191Z,75.73
2018-09-28T19:50:04.249Z,68.13
2018-09-28T19:52:33.813Z,50.80
2018-09-28T19:55:04.353Z,62.20
2018-09-28T19:57:40.384Z,18.90
2018-09-28T20:00:16.588Z,13.13
2018-09-28T20:02:47.981Z,94.03
2018-09-28T20:05:19.670Z,21.77
2018-09-28T20:07:54.554Z,39.03
2018-09-28T20:10:30.837Z,15.33
2018-09-28T20:13:01.885Z,12.40
2018-09-28T20:15:37.677Z,10.70
2018-09-28T20:18:13.500Z,13.00
2018-09-28T20:21:02.210Z,18.03
2018-09-28T20:25:56.438Z,16.07
2018-09-28T20:28:48.146Z,34.57
2018-09-28T20:34:20.004Z,10.43
2018-09-28T20:36:58.576Z,26.63
2018-09-28T20:39:32.275Z,12.03
2018-09-28T20:42:15.790Z,8.40
2018-09-28T20:44:48.365Z,9.43
2018-09-28T20:47:36.200Z,13.07
2018-09-28T20:50:33.762Z,13.93
2018-09-28T20:53:22.088Z,24.90
2018-09-28T20:56:17.921Z,15.23
2018-09-28T20:58:55.774Z,12.60
2018-09-28T21:01:37.273Z,28.77
2018-09-28T21:04:10.247Z,15.23
2018-09-28T21:06:41.319Z,23.97
2018-09-28T21:09:37.465Z,17.33
2018-09-28T21:12:09.431Z,8.50
2018-09-28T21:15:07.332Z,10.73
2018-09-28T21:17:44.568Z,26.03
2018-09-28T21:20:20.428Z,24.23
2018-09-28T21:22:50.588Z,9.57
2018-09-28T21:25:23.708Z,9.67
2018-09-28T21:27:56.816Z,8.20
2018-09-28T21:30:28.234Z,20.00
2018-09-28T21:33:04.987Z,12.57
2018-09-28T21:35:44.342Z,11.00
2018-09-28T21:38:24.799Z,63.80
2018-09-28T21:40:55.287Z,13.50
2018-09-28T21:43:29.550Z,23.80
2018-09-28T21:46:02.964Z,14.13
2018-09-28T21:51:16.161Z,8.87
2018-09-28T21:53:47.583Z,17.27
2018-09-28T21:56:17.796Z,11.00
2018-09-28T21:59:07.313Z,19.40
2018-09-28T22:02:01.317Z,12.90
2018-09-28T22:04:33.447Z,10.23
2018-09-28T22:07:05.228Z,9.87
2018-09-28T22:09:35.293Z,21.80
2018-09-28T22:12:13.072Z,20.97
2018-09-28T22:14:45.786Z,10.63
2018-09-28T22:17:15.253Z,19.73
2018-09-28T22:19:48.389Z,13.67
2018-09-28T22:22:35.234Z,10.40
2018-09-28T22:25:15.410Z,11.50
2018-09-28T22:27:48.576Z,25.00
2018-09-28T22:30:18.297Z,10.63
2018-09-28T22:32:59.299Z,18.40
2018-09-28T22:39:55.914Z,14.77
2018-09-28T22:42:35.292Z,12.37
2018-09-28T22:45:09.418Z,15.27
2018-09-28T22:47:40.280Z,11.03
2018-09-28T22:50:11.882Z,21.00
2018-09-28T22:52:41.463Z,13.23
2018-09-28T22:55:11.851Z,13.90
2018-09-28T22:57:42.256Z,76.17
2018-09-28T23:00:15.188Z,33.80
2018-09-28T23:02:45.596Z,17.27
2018-09-28T23:05:32.416Z,15.30
2018-09-28T23:08:24.669Z,9.33
2018-09-28T23:10:56.882Z,7.33
2018-09-28T23:13:38.556Z,15.30
2018-09-28T23:16:32.707Z,10.60
2018-09-28T23:19:09.625Z,9.83
2018-09-28T23:21:53.837Z,7.53
2018-09-28T23:31:01.656Z,8.67
2018-09-28T23:33:32.794Z,13.03
2018-09-28T23:36:02.565Z,11.90
2018-09-28T23:38:37.901Z,155.43
2018-09-28T23:41:14.885Z,13.43
2018-09-28T23:43:45.856Z,19.27
2018-09-28T23:46:16.149Z,11.07
2018-09-28T23:48:46.587Z,14.37
2018-09-28T23:51:23.167Z,9.30
2018-09-28T23:54:07.670Z,17.40
2018-09-28T23:56:39.990Z,19.90
2018-09-28T23:59:09.516Z,13.93
